Time,TemperatureF,DewpointF,PressureIn,WindDirection,WindDirectionDegrees,WindSpeedMPH,WindSpeedGustMPH,Humidity,HourlyPrecipIn,Conditions,Clouds,dailyrainin,SoftwareType,DateUTC
2013-09-18 00:01:00,58.8,56.2,30.14,East,82,0.0,5.0,91,0.00,,,0.00,Wunderground v.1.15,2013-09-18 04:01:00,
2013-09-18 00:03:00,58.8,56.5,30.14,East,82,0.0,5.0,92,0.00,,,0.00,Wunderground v.1.15,2013-09-18 04:03:00,
2013-09-18 00:04:00,58.8,56.5,30.14,East,82,0.0,5.0,92,0.00,,,0.00,Wunderground v.1.15,2013-09-18 04:04:00,
2013-09-18 00:09:00,58.9,56.6,30.13,East,82,0.0,5.0,92,0.00,,,0.00,Wunderground v.1.15,2013-09-18 04:09:00,
2013-09-18 00:11:00,58.9,56.6,30.13,East,82,0.0,5.0,92,0.00,,,0.00,Wunderground v.1.15,2013-09-18 04:11:00,
2013-09-18 00:13:00,58.8,56.5,30.13,East,82,1.0,5.0,92,0.00,,,0.00,Wunderground v.1.15,2013-09-18 04:13:00,
2013-09-18 00:14:00,58.7,56.1,30.13,East,82,1.0,5.0,91,0.00,,,0.00,Wunderground v.1.15,2013-09-18 04:14:00,
2013-09-18 00:16:00,58.5,55.9,30.13,East,82,1.0,5.0,91,0.00,,,0.00,Wunderground v.1.15,2013-09-18 04:16:00,
2013-09-18 00:19:00,58.4,55.8,30.13,East,82,1.0,5.0,91,0.00,,,0.00,Wunderground v.1.15,2013-09-18 04:19:00,
2013-09-18 00:21:00,58.3,56.0,30.13,East,82,1.0,5.0,92,0.00,,,0.00,Wunderground v.1.15,2013-09-18 04:21:00,
2013-09-18 00:23:00,58.2,55.9,30.13,East,82,1.0,5.0,92,0.00,,,0.00,Wunderground v.1.15,2013-09-18 04:23:00,
2013-09-18 00:25:00,58.2,55.9,30.13,East,82,1.0,5.0,92,0.00,,,0.00,Wunderground v.1.15,2013-09-18 04:25:00,
2013-09-18 00:26:00,58.1,55.8,30.13,East,82,1.0,5.0,92,0.00,,,0.00,Wunderground v.1.15,2013-09-18 04:26:00,
2013-09-18 00:31:00,58.0,55.7,30.13,East,82,1.0,5.0,92,0.00,,,0.00,Wunderground v.1.15,2013-09-18 04:31:00,
2013-09-18 00:33:00,58.0,55.7,30.13,East,82,1.0,5.0,92,0.00,,,0.00,Wunderground v.1.15,2013-09-18 04:33:00,
2013-09-18 00:35:00,57.9,55.6,30.13,East,82,1.0,5.0,92,0.00,,,0.00,Wunderground v.1.15,2013-09-18 04:35:00,
2013-09-18 00:36:00,57.8,55.5,30.13,East,82,1.0,5.0,92,0.00,,,0.00,Wunderground v.1.15,2013-09-18 04:36:00,
2013-09-18 00:38:00,57.8,55.5,30.13,East,82,1.0,5.0,92,0.00,,,0.00,Wunderground v.1.15,2013-09-18 04:38:00,
2013-09-18 00:43:00,57.9,55.9,30.13,East,82,0.0,5.0,93,0.00,,,0.00,Wunderground v.1.15,2013-09-18 04:43:00,
2013-09-18 00:45:00,58.0,56.0,30.13,East,82,0.0,5.0,93,0.00,,,0.00,Wunderground v.1.15,2013-09-18 04:45:00,
2013-09-18 00:46:00,58.0,55.7,30.12,East,82,0.0,5.0,92,0.00,,,0.00,Wunderground v.1.15,2013-09-18 04:46:00,
2013-09-18 00:48:00,58.0,55.7,30.12,East,82,0.0,5.0,92,0.00,,,0.00,Wunderground v.1.15,2013-09-18 04:48:00,
2013-09-18 00:53:00,58.1,55.8,30.12,East,82,0.0,5.0,92,0.00,,,0.00,Wunderground v.1.15,2013-09-18 04:53:00,
2013-09-18 00:55:00,58.1,55.8,30.12,East,82,0.0,5.0,92,0.00,,,0.00,Wunderground v.1.15,2013-09-18 04:55:00,
2013-09-18 00:56:00,58.1,55.8,30.12,East,82,0.0,5.0,92,0.00,,,0.00,Wunderground v.1.15,2013-09-18 04:56:00,
2013-09-18 00:58:00,58.1,55.8,30.12,East,82,0.0,5.0,92,0.00,,,0.00,Wunderground v.1.15,2013-09-18 04:58:00,
2013-09-18 01:03:00,58.1,55.8,30.12,East,82,0.0,5.0,92,0.00,,,0.00,Wunderground v.1.15,2013-09-18 05:03:00,
2013-09-18 01:05:00,58.0,55.7,30.12,East,82,0.0,5.0,92,0.00,,,0.00,Wunderground v.1.15,2013-09-18 05:05:00,
2013-09-18 01:06:00,58.0,55.7,30.12,East,82,0.0,5.0,92,0.00,,,0.00,Wunderground v.1.15,2013-09-18 05:06:00,
2013-09-18 01:10:00,58.0,55.7,30.12,East,82,0.0,5.0,92,0.00,,,0.00,Wunderground v.1.15,2013-09-18 05:10:00,
2013-09-18 01:13:00,58.0,55.7,30.12,East,82,0.0,5.0,92,0.00,,,0.00,Wunderground v.1.15,2013-09-18 05:13:00,
2013-09-18 01:15:00,57.9,55.6,30.12,East,82,0.0,5.0,92,0.00,,,0.00,Wunderground v.1.15,2013-09-18 05:15:00,
2013-09-18 01:18:00,57.7,55.4,30.12,East,82,0.0,5.0,92,0.00,,,0.00,Wunderground v.1.15,2013-09-18 05:18:00,
2013-09-18 01:21:00,57.6,55.3,30.12,East,82,0.0,5.0,92,0.00,,,0.00,Wunderground v.1.15,2013-09-18 05:21:00,
2013-09-18 01:23:00,57.5,55.2,30.12,East,82,1.0,5.0,92,0.00,,,0.00,Wunderground v.1.15,2013-09-18 05:23:00,
2013-09-18 01:27:00,57.4,55.1,30.12,East,82,1.0,5.0,92,0.00,,,0.00,Wunderground v.1.15,2013-09-18 05:27:00,
2013-09-18 01:28:00,57.3,55.0,30.12,East,82,1.0,5.0,92,0.00,,,0.00,Wunderground v.1.15,2013-09-18 05:28:00,
2013-09-18 01:31:00,57.4,55.4,30.12,East,82,0.0,5.0,93,0.00,,,0.00,Wunderground v.1.15,2013-09-18 05:31:00,
2013-09-18 01:33:00,57.5,55.5,30.12,East,82,0.0,5.0,93,0.00,,,0.00,Wunderground v.1.15,2013-09-18 05:33:00,
2013-09-18 01:35:00,57.6,55.6,30.12,East,82,0.0,5.0,93,0.00,,,0.00,Wunderground v.1.15,2013-09-18 05:35:00,
2013-09-18 01:38:00,57.7,55.7,30.12,East,82,0.0,5.0,93,0.00,,,0.00,Wunderground v.1.15,2013-09-18 05:38:00,
2013-09-18 01:40:00,57.7,55.7,30.11,East,82,0.0,5.0,93,0.00,,,0.00,Wunderground v.1.15,2013-09-18 05:40:00,
2013-09-18 01:45:00,57.7,55.7,30.11,East,82,1.0,5.0,93,0.00,,,0.00,Wunderground v.1.15,2013-09-18 05:45:00,
2013-09-18 01:48:00,57.6,55.3,30.11,East,82,1.0,5.0,92,0.00,,,0.00,Wunderground v.1.15,2013-09-18 05:48:00,
2013-09-18 01:50:00,57.5,55.2,30.11,East,82,1.0,1.0,92,0.00,,,0.00,Wunderground v.1.15,2013-09-18 05:50:00,
2013-09-18 01:57:00,57.6,55.6,30.12,East,82,0.0,5.0,93,0.00,,,0.00,Wunderground v.1.15,2013-09-18 05:57:00,
2013-09-18 01:58:00,57.6,55.6,30.12,East,82,0.0,5.0,93,0.00,,,0.00,Wunderground v.1.15,2013-09-18 05:58:00,
2013-09-18 02:00:00,57.7,55.7,30.12,East,82,0.0,5.0,93,0.00,,,0.00,Wunderground v.1.15,2013-09-18 06:00:00,
2013-09-18 02:02:00,57.8,55.8,30.11,East,82,0.0,5.0,93,0.00,,,0.00,Wunderground v.1.15,2013-09-18 06:02:00,
2013-09-18 02:05:00,57.8,55.8,30.12,East,82,0.0,5.0,93,0.00,,,0.00,Wunderground v.1.15,2013-09-18 06:05:00,
2013-09-18 02:07:00,57.9,55.9,30.12,East,82,0.0,5.0,93,0.00,,,0.00,Wunderground v.1.15,2013-09-18 06:07:00,
2013-09-18 02:08:00,57.9,55.9,30.11,East,82,0.0,5.0,93,0.00,,,0.00,Wunderground v.1.15,2013-09-18 06:08:00,
2013-09-18 02:15:00,57.9,55.9,30.12,East,82,0.0,5.0,93,0.00,,,0.00,Wunderground v.1.15,2013-09-18 06:15:00,
2013-09-18 02:18:00,57.9,55.9,30.12,East,82,0.0,5.0,93,0.00,,,0.00,Wunderground v.1.15,2013-09-18 06:18:00,
2013-09-18 02:20:00,57.9,55.9,30.12,East,82,0.0,5.0,93,0.00,,,0.00,Wunderground v.1.15,2013-09-18 06:20:00,
2013-09-18 02:22:00,57.9,55.9,30.12,East,82,0.0,5.0,93,0.00,,,0.00,Wunderground v.1.15,2013-09-18 06:22:00,
2013-09-18 02:25:00,57.9,55.9,30.12,East,82,1.0,5.0,93,0.00,,,0.00,Wunderground v.1.15,2013-09-18 06:25:00,
2013-09-18 02:28:00,57.9,55.9,30.12,East,82,1.0,5.0,93,0.00,,,0.00,Wunderground v.1.15,2013-09-18 06:28:00,
2013-09-18 02:35:00,57.8,55.8,30.11,East,82,0.0,5.0,93,0.00,,,0.00,Wunderground v.1.15,2013-09-18 06:35:00,
2013-09-18 02:37:00,57.8,55.8,30.11,East,82,0.0,5.0,93,0.00,,,0.00,Wunderground v.1.15,2013-09-18 06:37:00,
2013-09-18 02:39:00,57.8,55.8,30.11,East,82,0.0,5.0,93,0.00,,,0.00,Wunderground v.1.15,2013-09-18 06:39:00,
2013-09-18 02:45:00,57.7,55.7,30.11,East,82,0.0,5.0,93,0.00,,,0.00,Wunderground v.1.15,2013-09-18 06:45:00,
2013-09-18 02:47:00,57.7,55.7,30.12,East,82,0.0,5.0,93,0.00,,,0.00,Wunderground v.1.15,2013-09-18 06:47:00,
2013-09-18 02:49:00,57.7,55.7,30.11,East,82,0.0,5.0,93,0.00,,,0.00,Wunderground v.1.15,2013-09-18 06:49:00,
2013-09-18 02:55:00,57.7,55.7,30.11,East,82,0.0,5.0,93,0.00,,,0.00,Wunderground v.1.15,2013-09-18 06:55:00,
2013-09-18 03:01:00,57.6,55.6,30.11,East,82,0.0,5.0,93,0.00,,,0.00,Wunderground v.1.15,2013-09-18 07:01:00,
2013-09-18 03:02:00,57.5,55.2,30.11,East,82,0.0,5.0,92,0.00,,,0.00,Wunderground v.1.15,2013-09-18 07:02:00,
2013-09-18 03:05:00,57.5,55.2,30.11,East,82,0.0,5.0,92,0.00,,,0.00,Wunderground v.1.15,2013-09-18 07:05:00,
2013-09-18 03:07:00,57.4,55.4,30.11,East,82,0.0,5.0,93,0.00,,,0.00,Wunderground v.1.15,2013-09-18 07:07:00,
2013-09-18 03:10:00,57.4,55.4,30.11,East,82,0.0,5.0,93,0.00,,,0.00,Wunderground v.1.15,2013-09-18 07:10:00,
2013-09-18 03:12:00,57.3,55.3,30.11,East,82,0.0,5.0,93,0.00,,,0.00,Wunderground v.1.15,2013-09-18 07:12:00,
2013-09-18 03:14:00,57.4,55.4,30.11,East,82,0.0,5.0,93,0.00,,,0.00,Wunderground v.1.15,2013-09-18 07:14:00,
2013-09-18 03:17:00,57.3,55.3,30.11,East,82,0.0,5.0,93,0.00,,,0.00,Wunderground v.1.15,2013-09-18 07:17:00,
2013-09-18 03:19:00,57.4,55.4,30.11,East,82,0.0,5.0,93,0.00,,,0.00,Wunderground v.1.15,2013-09-18 07:19:00,
2013-09-18 03:21:00,57.4,55.4,30.11,East,82,0.0,5.0,93,0.00,,,0.00,Wunderground v.1.15,2013-09-18 07:21:00,
2013-09-18 03:22:00,57.3,55.3,30.11,East,82,0.0,5.0,93,0.00,,,0.00,Wunderground v.1.15,2013-09-18 07:22:00,
2013-09-18 03:27:00,57.3,55.3,30.11,East,82,0.0,5.0,93,0.00,,,0.00,Wunderground v.1.15,2013-09-18 07:27:00,
2013-09-18 03:29:00,57.3,55.3,30.11,East,82,0.0,5.0,93,0.00,,,0.00,Wunderground v.1.15,2013-09-18 07:29:00,
2013-09-18 03:30:00,57.3,55.3,30.11,East,82,0.0,5.0,93,0.00,,,0.00,Wunderground v.1.15,2013-09-18 07:30:00,
2013-09-18 03:32:00,57.4,55.4,30.11,East,82,0.0,5.0,93,0.00,,,0.00,Wunderground v.1.15,2013-09-18 07:32:00,
2013-09-18 03:37:00,57.4,55.4,30.10,East,82,0.0,5.0,93,0.00,,,0.00,Wunderground v.1.15,2013-09-18 07:37:00,
2013-09-18 03:39:00,57.4,55.4,30.11,SSE,147,0.0,5.0,93,0.00,,,0.00,Wunderground v.1.15,2013-09-18 07:39:00,
2013-09-18 03:42:00,57.4,55.4,30.11,SSE,147,1.0,5.0,93,0.00,,,0.00,Wunderground v.1.15,2013-09-18 07:42:00,
2013-09-18 03:44:00,57.5,55.5,30.10,SSE,147,1.0,5.0,93,0.00,,,0.00,Wunderground v.1.15,2013-09-18 07:44:00,
2013-09-18 03:49:00,57.5,55.5,30.10,SSE,147,1.0,5.0,93,0.00,,,0.00,Wunderground v.1.15,2013-09-18 07:49:00,
2013-09-18 03:52:00,57.6,55.6,30.10,SSE,147,1.0,5.0,93,0.00,,,0.00,Wunderground v.1.15,2013-09-18 07:52:00,
2013-09-18 03:54:00,57.6,55.6,30.10,SSE,147,1.0,5.0,93,0.00,,,0.00,Wunderground v.1.15,2013-09-18 07:54:00,
2013-09-18 03:57:00,57.7,55.7,30.10,SSE,147,0.0,5.0,93,0.00,,,0.00,Wunderground v.1.15,2013-09-18 07:57:00,
2013-09-18 03:59:00,57.7,55.7,30.10,SSE,147,0.0,5.0,93,0.00,,,0.00,Wunderground v.1.15,2013-09-18 07:59:00,
2013-09-18 04:02:00,57.8,55.8,30.10,SSE,147,0.0,5.0,93,0.00,,,0.00,Wunderground v.1.15,2013-09-18 08:02:00,
2013-09-18 04:04:00,57.8,55.8,30.10,SSE,147,0.0,5.0,93,0.00,,,0.00,Wunderground v.1.15,2013-09-18 08:04:00,
2013-09-18 04:11:00,57.8,55.8,30.10,SSE,147,0.0,5.0,93,0.00,,,0.00,Wunderground v.1.15,2013-09-18 08:11:00,
2013-09-18 04:13:00,57.9,55.9,30.10,SSE,147,0.0,5.0,93,0.00,,,0.00,Wunderground v.1.15,2013-09-18 08:13:00,
2013-09-18 04:14:00,57.8,55.8,30.10,SSE,147,0.0,5.0,93,0.00,,,0.00,Wunderground v.1.15,2013-09-18 08:14:00,
2013-09-18 04:19:00,57.9,55.9,30.10,SSE,147,0.0,5.0,93,0.00,,,0.00,Wunderground v.1.15,2013-09-18 08:19:00,
2013-09-18 04:21:00,57.8,55.8,30.10,SSE,147,0.0,5.0,93,0.00,,,0.00,Wunderground v.1.15,2013-09-18 08:21:00,
2013-09-18 04:23:00,57.8,55.8,30.10,SSE,147,0.0,5.0,93,0.00,,,0.00,Wunderground v.1.15,2013-09-18 08:23:00,
2013-09-18 04:26:00,57.7,55.7,30.10,SSE,147,0.0,5.0,93,0.00,,,0.00,Wunderground v.1.15,2013-09-18 08:26:00,
2013-09-18 04:29:00,57.7,55.7,30.10,SSE,147,0.0,5.0,93,0.00,,,0.00,Wunderground v.1.15,2013-09-18 08:29:00,
2013-09-18 04:31:00,57.7,55.7,30.10,SSE,147,0.0,5.0,93,0.00,,,0.00,Wunderground v.1.15,2013-09-18 08:31:00,
2013-09-18 04:33:00,57.7,55.7,30.10,SSE,147,0.0,5.0,93,0.00,,,0.00,Wunderground v.1.15,2013-09-18 08:33:00,
2013-09-18 04:34:00,57.7,55.7,30.10,SSE,147,0.0,5.0,93,0.00,,,0.00,Wunderground v.1.15,2013-09-18 08:34:00,
2013-09-18 04:39:00,57.7,55.7,30.10,SSE,147,0.0,5.0,93,0.00,,,0.00,Wunderground v.1.15,2013-09-18 08:39:00,
2013-09-18 04:41:00,57.7,55.7,30.10,SSE,147,0.0,5.0,93,0.00,,,0.00,Wunderground v.1.15,2013-09-18 08:41:00,
2013-09-18 04:44:00,57.6,55.6,30.10,SSE,147,0.0,5.0,93,0.00,,,0.00,Wunderground v.1.15,2013-09-18 08:44:00,
2013-09-18 04:46:00,57.6,55.3,30.10,SSE,147,0.0,5.0,92,0.00,,,0.00,Wunderground v.1.15,2013-09-18 08:46:00,
2013-09-18 04:51:00,57.5,55.5,30.10,SSE,147,0.0,5.0,93,0.00,,,0.00,Wunderground v.1.15,2013-09-18 08:51:00,
2013-09-18 04:54:00,57.5,55.5,30.10,SSE,147,0.0,5.0,93,0.00,,,0.00,Wunderground v.1.15,2013-09-18 08:54:00,
2013-09-18 04:56:00,57.5,55.5,30.10,SSE,147,0.0,5.0,93,0.00,,,0.00,Wunderground v.1.15,2013-09-18 08:56:00,
2013-09-18 04:59:00,57.5,55.5,30.10,SSE,147,0.0,5.0,93,0.00,,,0.00,Wunderground v.1.15,2013-09-18 08:59:00,
2013-09-18 05:01:00,57.5,55.5,30.10,SSE,147,0.0,5.0,93,0.00,,,0.00,Wunderground v.1.15,2013-09-18 09:01:00,
2013-09-18 05:04:00,57.6,55.6,30.10,SSE,147,0.0,5.0,93,0.00,,,0.00,Wunderground v.1.15,2013-09-18 09:04:00,
2013-09-18 05:06:00,57.6,55.6,30.10,SSE,147,0.0,5.0,93,0.00,,,0.00,Wunderground v.1.15,2013-09-18 09:06:00,
2013-09-18 05:09:00,57.7,55.7,30.10,SSE,147,0.0,5.0,93,0.00,,,0.00,Wunderground v.1.15,2013-09-18 09:09:00,
2013-09-18 05:11:00,57.7,55.7,30.10,SSE,147,0.0,5.0,93,0.00,,,0.00,Wunderground v.1.15,2013-09-18 09:11:00,
2013-09-18 05:14:00,57.7,55.7,30.10,SSE,147,0.0,5.0,93,0.00,,,0.00,Wunderground v.1.15,2013-09-18 09:14:00,
2013-09-18 05:21:00,57.7,55.7,30.10,SSE,147,0.0,5.0,93,0.00,,,0.00,Wunderground v.1.15,2013-09-18 09:21:00,
2013-09-18 05:23:00,57.7,55.7,30.10,SSE,147,0.0,5.0,93,0.00,,,0.00,Wunderground v.1.15,2013-09-18 09:23:00,
2013-09-18 05:26:00,57.7,55.7,30.10,SSE,147,0.0,5.0,93,0.00,,,0.00,Wunderground v.1.15,2013-09-18 09:26:00,
2013-09-18 05:31:00,57.7,55.7,30.10,SSE,147,0.0,5.0,93,0.00,,,0.00,Wunderground v.1.15,2013-09-18 09:31:00,
2013-09-18 05:33:00,57.7,55.7,30.10,SSE,147,0.0,5.0,93,0.00,,,0.00,Wunderground v.1.15,2013-09-18 09:33:00,
2013-09-18 05:36:00,57.7,55.7,30.10,SSE,147,0.0,5.0,93,0.00,,,0.00,Wunderground v.1.15,2013-09-18 09:36:00,
2013-09-18 05:38:00,57.6,55.6,30.10,SSE,147,0.0,5.0,93,0.00,,,0.00,Wunderground v.1.15,2013-09-18 09:38:00,
2013-09-18 05:43:00,57.7,55.7,30.10,SSE,147,0.0,5.0,93,0.00,,,0.00,Wunderground v.1.15,2013-09-18 09:43:00,
2013-09-18 05:45:00,57.7,55.7,30.10,SSE,147,0.0,5.0,93,0.00,,,0.00,Wunderground v.1.15,2013-09-18 09:45:00,
2013-09-18 05:48:00,57.7,55.7,30.10,SSE,147,0.0,5.0,93,0.00,,,0.00,Wunderground v.1.15,2013-09-18 09:48:00,
2013-09-18 05:52:00,57.7,55.7,30.10,SSE,147,0.0,5.0,93,0.00,,,0.00,Wunderground v.1.15,2013-09-18 09:52:00,
2013-09-18 05:55:00,57.7,55.7,30.10,SSE,147,0.0,5.0,93,0.00,,,0.00,Wunderground v.1.15,2013-09-18 09:55:00,
2013-09-18 05:57:00,57.7,55.7,30.10,SSE,147,0.0,5.0,93,0.00,,,0.00,Wunderground v.1.15,2013-09-18 09:57:00,
2013-09-18 06:01:00,57.7,55.7,30.10,SSE,147,0.0,5.0,93,0.00,,,0.00,Wunderground v.1.15,2013-09-18 10:01:00,
2013-09-18 06:02:00,57.7,55.7,30.10,SSE,147,0.0,5.0,93,0.00,,,0.00,Wunderground v.1.15,2013-09-18 10:02:00,
2013-09-18 06:07:00,57.7,55.7,30.10,SSE,147,0.0,5.0,93,0.00,,,0.00,Wunderground v.1.15,2013-09-18 10:07:00,
2013-09-18 06:08:00,57.7,55.7,30.10,SSE,147,0.0,5.0,93,0.00,,,0.00,Wunderground v.1.15,2013-09-18 10:08:00,
2013-09-18 06:13:00,57.6,55.6,30.10,SSE,147,0.0,0.0,93,0.00,,,0.00,Wunderground v.1.15,2013-09-18 10:13:00,
2013-09-18 06:15:00,57.7,55.7,30.10,SSE,147,0.0,0.0,93,0.00,,,0.00,Wunderground v.1.15,2013-09-18 10:15:00,
2013-09-18 06:17:00,57.7,55.7,30.10,SSE,147,0.0,0.0,93,0.00,,,0.00,Wunderground v.1.15,2013-09-18 10:17:00,
2013-09-18 06:23:00,57.7,55.7,30.10,SSE,147,0.0,0.0,93,0.00,,,0.00,Wunderground v.1.15,2013-09-18 10:23:00,
2013-09-18 06:25:00,57.7,55.7,30.10,SSE,147,0.0,0.0,93,0.00,,,0.00,Wunderground v.1.15,2013-09-18 10:25:00,
2013-09-18 06:28:00,57.8,55.8,30.11,SSE,147,0.0,0.0,93,0.00,,,0.00,Wunderground v.1.15,2013-09-18 10:28:00,
2013-09-18 06:31:00,57.8,55.8,30.11,SSE,147,0.0,0.0,93,0.00,,,0.00,Wunderground v.1.15,2013-09-18 10:31:00,
2013-09-18 06:37:00,57.7,55.7,30.11,SSE,147,0.0,0.0,93,0.00,,,0.00,Wunderground v.1.15,2013-09-18 10:37:00,
2013-09-18 06:38:00,57.7,55.7,30.11,SSE,147,0.0,0.0,93,0.00,,,0.00,Wunderground v.1.15,2013-09-18 10:38:00,
2013-09-18 06:40:00,57.7,55.7,30.11,SSE,147,0.0,0.0,93,0.00,,,0.00,Wunderground v.1.15,2013-09-18 10:40:00,
2013-09-18 06:43:00,57.7,55.7,30.11,SSE,147,0.0,0.0,93,0.00,,,0.00,Wunderground v.1.15,2013-09-18 10:43:00,
2013-09-18 06:45:00,57.7,55.7,30.11,SSE,147,0.0,0.0,93,0.00,,,0.00,Wunderground v.1.15,2013-09-18 10:45:00,
2013-09-18 06:50:00,57.8,55.8,30.11,SSE,147,0.0,0.0,93,0.00,,,0.00,Wunderground v.1.15,2013-09-18 10:50:00,
2013-09-18 06:53:00,57.8,55.8,30.11,SSE,147,0.0,0.0,93,0.00,,,0.00,Wunderground v.1.15,2013-09-18 10:53:00,
2013-09-18 06:55:00,57.8,55.8,30.11,SSE,147,0.0,0.0,93,0.00,,,0.00,Wunderground v.1.15,2013-09-18 10:55:00,
2013-09-18 06:57:00,57.8,55.8,30.11,SSE,147,0.0,0.0,93,0.00,,,0.00,Wunderground v.1.15,2013-09-18 10:57:00,
2013-09-18 07:00:00,57.8,55.8,30.11,SSE,147,0.0,0.0,93,0.00,,,0.00,Wunderground v.1.15,2013-09-18 11:00:00,
2013-09-18 07:02:00,57.8,55.8,30.11,SSE,147,0.0,0.0,93,0.00,,,0.00,Wunderground v.1.15,2013-09-18 11:02:00,
2013-09-18 07:05:00,57.8,55.8,30.11,SSE,147,0.0,0.0,93,0.00,,,0.00,Wunderground v.1.15,2013-09-18 11:05:00,
2013-09-18 07:07:00,57.9,55.9,30.11,SSE,147,0.0,0.0,93,0.00,,,0.00,Wunderground v.1.15,2013-09-18 11:07:00,
2013-09-18 07:08:00,57.9,55.9,30.11,SSE,147,0.0,0.0,93,0.00,,,0.00,Wunderground v.1.15,2013-09-18 11:08:00,
2013-09-18 07:15:00,58.0,56.0,30.11,SSE,147,0.0,0.0,93,0.00,,,0.00,Wunderground v.1.15,2013-09-18 11:15:00,
2013-09-18 07:17:00,58.0,56.0,30.11,SSE,147,0.0,0.0,93,0.00,,,0.00,Wunderground v.1.15,2013-09-18 11:17:00,
2013-09-18 07:18:00,58.0,56.0,30.12,SSE,147,0.0,0.0,93,0.00,,,0.00,Wunderground v.1.15,2013-09-18 11:18:00,
2013-09-18 07:23:00,57.9,55.9,30.11,SSE,147,0.0,0.0,93,0.00,,,0.00,Wunderground v.1.15,2013-09-18 11:23:00,
2013-09-18 07:25:00,57.9,55.9,30.12,SSE,147,0.0,0.0,93,0.00,,,0.00,Wunderground v.1.15,2013-09-18 11:25:00,
2013-09-18 07:27:00,57.8,55.8,30.12,SSE,147,0.0,0.0,93,0.00,,,0.00,Wunderground v.1.15,2013-09-18 11:27:00,
2013-09-18 07:28:00,57.8,55.8,30.12,SSE,147,0.0,0.0,93,0.00,,,0.00,Wunderground v.1.15,2013-09-18 11:28:00,
2013-09-18 07:33:00,57.8,55.8,30.12,SSE,147,0.0,0.0,93,0.00,,,0.00,Wunderground v.1.15,2013-09-18 11:33:00,
2013-09-18 07:35:00,57.8,55.8,30.12,SSE,147,0.0,0.0,93,0.00,,,0.00,Wunderground v.1.15,2013-09-18 11:35:00,
2013-09-18 07:39:00,57.8,55.8,30.12,SSE,147,0.0,0.0,93,0.00,,,0.00,Wunderground v.1.15,2013-09-18 11:39:00,
2013-09-18 07:45:00,57.8,55.8,30.12,SSE,147,0.0,0.0,93,0.00,,,0.00,Wunderground v.1.15,2013-09-18 11:45:00,
2013-09-18 07:47:00,57.8,55.8,30.12,SSE,147,0.0,0.0,93,0.00,,,0.00,Wunderground v.1.15,2013-09-18 11:47:00,
2013-09-18 07:52:00,57.9,55.9,30.12,SSE,147,0.0,0.0,93,0.00,,,0.00,Wunderground v.1.15,2013-09-18 11:52:00,
2013-09-18 07:55:00,57.9,55.9,30.12,SSE,147,0.0,0.0,93,0.00,,,0.00,Wunderground v.1.15,2013-09-18 11:55:00,
2013-09-18 07:59:00,57.9,55.9,30.12,SSE,147,0.0,0.0,93,0.00,,,0.00,Wunderground v.1.15,2013-09-18 11:59:00,
2013-09-18 08:05:00,57.9,55.9,30.12,SSE,147,0.0,0.0,93,0.00,,,0.00,Wunderground v.1.15,2013-09-18 12:05:00,
2013-09-18 08:07:00,58.0,56.0,30.13,SSE,147,0.0,0.0,93,0.00,,,0.00,Wunderground v.1.15,2013-09-18 12:07:00,
2013-09-18 08:10:00,58.1,56.1,30.12,SSE,147,0.0,0.0,93,0.00,,,0.00,Wunderground v.1.15,2013-09-18 12:10:00,
2013-09-18 08:12:00,58.1,56.1,30.12,SSE,147,0.0,0.0,93,0.00,,,0.00,Wunderground v.1.15,2013-09-18 12:12:00,
2013-09-18 08:15:00,58.1,56.1,30.12,SSE,147,0.0,0.0,93,0.00,,,0.00,Wunderground v.1.15,2013-09-18 12:15:00,
2013-09-18 08:17:00,58.1,56.1,30.13,SSE,147,0.0,0.0,93,0.00,,,0.00,Wunderground v.1.15,2013-09-18 12:17:00,
2013-09-18 08:20:00,58.2,56.2,30.13,SSE,147,0.0,0.0,93,0.00,,,0.00,Wunderground v.1.15,2013-09-18 12:20:00,
2013-09-18 08:25:00,58.4,56.4,30.13,SSE,147,0.0,0.0,93,0.00,,,0.00,Wunderground v.1.15,2013-09-18 12:25:00,
2013-09-18 08:27:00,58.5,56.5,30.13,SSE,147,0.0,0.0,93,0.00,,,0.00,Wunderground v.1.15,2013-09-18 12:27:00,
2013-09-18 08:29:00,58.6,56.6,30.13,SSE,147,0.0,0.0,93,0.00,,,0.00,Wunderground v.1.15,2013-09-18 12:29:00,
2013-09-18 08:30:00,58.7,56.7,30.13,SSE,147,0.0,0.0,93,0.00,,,0.00,Wunderground v.1.15,2013-09-18 12:30:00,
2013-09-18 08:32:00,58.7,56.7,30.13,SSE,147,0.0,0.0,93,0.00,,,0.00,Wunderground v.1.15,2013-09-18 12:32:00,
2013-09-18 08:37:00,58.9,56.9,30.13,SSE,147,0.0,0.0,93,0.00,,,0.00,Wunderground v.1.15,2013-09-18 12:37:00,
2013-09-18 08:42:00,59.0,56.7,30.13,SSE,147,0.0,1.0,92,0.00,,,0.00,Wunderground v.1.15,2013-09-18 12:42:00,
2013-09-18 08:49:00,59.2,56.9,30.13,SSE,147,0.0,1.0,92,0.00,,,0.00,Wunderground v.1.15,2013-09-18 12:49:00,
2013-09-18 08:50:00,59.3,57.0,30.13,SSE,147,0.0,0.0,92,0.00,,,0.00,Wunderground v.1.15,2013-09-18 12:50:00,
2013-09-18 08:52:00,59.4,57.1,30.13,SSE,147,0.0,0.0,92,0.00,,,0.00,Wunderground v.1.15,2013-09-18 12:52:00,
2013-09-18 08:55:00,59.5,57.2,30.13,SSE,147,0.0,0.0,92,0.00,,,0.00,Wunderground v.1.15,2013-09-18 12:55:00,
2013-09-18 08:57:00,59.6,57.3,30.13,SSE,147,0.0,0.0,92,0.00,,,0.00,Wunderground v.1.15,2013-09-18 12:57:00,
2013-09-18 08:58:00,59.6,57.3,30.13,SSE,147,0.0,1.0,92,0.00,,,0.00,Wunderground v.1.15,2013-09-18 12:58:00,
2013-09-18 09:00:00,59.8,57.2,30.13,SSE,147,0.0,0.0,91,0.00,,,0.00,Wunderground v.1.15,2013-09-18 13:00:00,
2013-09-18 09:05:00,60.0,57.4,30.13,SSE,147,0.0,0.0,91,0.00,,,0.00,Wunderground v.1.15,2013-09-18 13:05:00,
2013-09-18 09:07:00,60.0,57.4,30.13,SSE,147,0.0,0.0,91,0.00,,,0.00,Wunderground v.1.15,2013-09-18 13:07:00,
2013-09-18 09:09:00,60.1,57.5,30.13,SSE,147,0.0,0.0,91,0.00,,,0.00,Wunderground v.1.15,2013-09-18 13:09:00,
2013-09-18 09:15:00,60.4,57.5,30.13,SSE,147,0.0,0.0,90,0.00,,,0.00,Wunderground v.1.15,2013-09-18 13:15:00,
2013-09-18 09:17:00,60.4,57.5,30.13,SSE,147,0.0,0.0,90,0.00,,,0.00,Wunderground v.1.15,2013-09-18 13:17:00,
2013-09-18 09:20:00,60.5,57.6,30.13,SSE,147,0.0,0.0,90,0.00,,,0.00,Wunderground v.1.15,2013-09-18 13:20:00,
2013-09-18 09:25:00,60.8,57.8,30.13,SSE,147,0.0,0.0,90,0.00,,,0.00,Wunderground v.1.15,2013-09-18 13:25:00,
2013-09-18 09:29:00,61.0,58.0,30.13,SSE,147,0.0,0.0,90,0.00,,,0.00,Wunderground v.1.15,2013-09-18 13:29:00,
2013-09-18 09:31:00,61.1,58.1,30.13,SSE,147,0.0,0.0,90,0.00,,,0.00,Wunderground v.1.15,2013-09-18 13:31:00,
2013-09-18 09:32:00,61.2,57.9,30.13,SSE,147,0.0,0.0,89,0.00,,,0.00,Wunderground v.1.15,2013-09-18 13:32:00,
2013-09-18 09:36:00,61.3,57.7,30.13,SSE,147,0.0,0.0,88,0.00,,,0.00,Wunderground v.1.15,2013-09-18 13:36:00,
2013-09-18 09:42:00,61.5,57.9,30.13,SSE,147,0.0,0.0,88,0.00,,,0.00,Wunderground v.1.15,2013-09-18 13:42:00,
2013-09-18 09:45:00,61.6,58.0,30.13,SSE,147,0.0,2.0,88,0.00,,,0.00,Wunderground v.1.15,2013-09-18 13:45:00,
2013-09-18 09:51:00,61.8,58.2,30.13,SSE,147,1.0,1.0,88,0.00,,,0.00,Wunderground v.1.15,2013-09-18 13:51:00,
2013-09-18 09:53:00,61.9,58.3,30.13,SSE,147,1.0,1.0,88,0.00,,,0.00,Wunderground v.1.15,2013-09-18 13:53:00,
2013-09-18 09:55:00,62.0,58.1,30.13,SSE,147,1.0,1.0,87,0.00,,,0.00,Wunderground v.1.15,2013-09-18 13:55:00,
2013-09-18 09:59:00,62.4,58.8,30.13,SSE,147,1.0,1.0,88,0.00,,,0.00,Wunderground v.1.15,2013-09-18 13:59:00,
2013-09-18 10:03:00,62.9,59.0,30.13,SSE,147,0.0,4.0,87,0.00,,,0.00,Wunderground v.1.15,2013-09-18 14:03:00,
2013-09-18 10:04:00,63.0,58.7,30.13,SSE,147,0.0,4.0,86,0.00,,,0.00,Wunderground v.1.15,2013-09-18 14:04:00,
2013-09-18 10:09:00,63.2,58.6,30.13,SSE,147,1.0,4.0,85,0.00,,,0.00,Wunderground v.1.15,2013-09-18 14:09:00,
2013-09-18 10:12:00,63.4,58.8,30.13,SSE,147,1.0,4.0,85,0.00,,,0.00,Wunderground v.1.15,2013-09-18 14:12:00,
2013-09-18 10:15:00,63.4,58.8,30.13,SSE,149,1.0,4.0,85,0.00,,,0.00,Wunderground v.1.15,2013-09-18 14:15:00,
2013-09-18 10:18:00,63.5,58.9,30.13,SSE,149,1.0,4.0,85,0.00,,,0.00,Wunderground v.1.15,2013-09-18 14:18:00,
2013-09-18 10:20:00,63.6,59.3,30.14,SSE,149,1.0,1.0,86,0.00,,,0.00,Wunderground v.1.15,2013-09-18 14:20:00,
2013-09-18 10:23:00,63.7,59.4,30.13,SSE,149,1.0,1.0,86,0.00,,,0.00,Wunderground v.1.15,2013-09-18 14:23:00,
2013-09-18 10:29:00,64.1,59.8,30.14,SSE,149,0.0,1.0,86,0.00,,,0.00,Wunderground v.1.15,2013-09-18 14:29:00,
2013-09-18 10:31:00,64.3,59.7,30.14,SSE,149,0.0,1.0,85,0.00,,,0.00,Wunderground v.1.15,2013-09-18 14:31:00,
2013-09-18 10:37:00,64.7,60.1,30.14,SSE,149,0.0,1.0,85,0.00,,,0.00,Wunderground v.1.15,2013-09-18 14:37:00,
2013-09-18 10:39:00,64.8,59.9,30.14,SSE,149,0.0,1.0,84,0.00,,,0.00,Wunderground v.1.15,2013-09-18 14:39:00,
2013-09-18 10:43:00,64.8,59.9,30.14,SSE,149,0.0,2.0,84,0.00,,,0.00,Wunderground v.1.15,2013-09-18 14:43:00,
2013-09-18 10:47:00,64.9,59.9,30.14,SSE,149,1.0,2.0,84,0.00,,,0.00,Wunderground v.1.15,2013-09-18 14:47:00,
2013-09-18 10:48:00,64.9,60.3,30.13,SSE,149,1.0,2.0,85,0.00,,,0.00,Wunderground v.1.15,2013-09-18 14:48:00,
2013-09-18 10:53:00,65.0,60.7,30.14,SSE,149,1.0,2.0,86,0.00,,,0.00,Wunderground v.1.15,2013-09-18 14:53:00,
2013-09-18 10:59:00,65.7,61.1,30.14,SSE,149,0.0,2.0,85,0.00,,,0.00,Wunderground v.1.15,2013-09-18 14:59:00,
2013-09-18 11:03:00,66.3,61.3,30.14,SSE,149,0.0,1.0,84,0.00,,,0.00,Wunderground v.1.15,2013-09-18 15:03:00,
2013-09-18 11:07:00,66.8,61.8,30.14,SSE,149,0.0,1.0,84,0.00,,,0.00,Wunderground v.1.15,2013-09-18 15:07:00,
2013-09-18 11:08:00,67.0,61.3,30.13,SSE,147,1.0,3.0,82,0.00,,,0.00,Wunderground v.1.15,2013-09-18 15:08:00,
2013-09-18 11:13:00,67.2,61.5,30.13,SSE,147,2.0,2.0,82,0.00,,,0.00,Wunderground v.1.15,2013-09-18 15:13:00,
2013-09-18 11:16:00,67.6,62.3,30.13,SSE,147,2.0,2.0,83,0.00,,,0.00,Wunderground v.1.15,2013-09-18 15:16:00,
2013-09-18 11:19:00,67.9,62.5,30.13,SSE,152,1.0,2.0,83,0.00,,,0.00,Wunderground v.1.15,2013-09-18 15:19:00,
2013-09-18 11:23:00,68.7,63.0,30.13,SSE,152,1.0,1.0,82,0.00,,,0.00,Wunderground v.1.15,2013-09-18 15:23:00,
2013-09-18 11:25:00,69.1,63.0,30.13,SSE,158,1.0,1.0,81,0.00,,,0.00,Wunderground v.1.15,2013-09-18 15:25:00,
2013-09-18 11:30:00,70.0,63.2,30.13,WSW,240,2.0,5.0,79,0.00,,,0.00,Wunderground v.1.15,2013-09-18 15:30:00,
2013-09-18 11:35:00,70.3,63.1,30.13,South,185,4.0,5.0,78,0.00,,,0.00,Wunderground v.1.15,2013-09-18 15:35:00,
2013-09-18 11:41:00,70.6,64.1,30.12,South,181,6.0,6.0,80,0.00,,,0.00,Wunderground v.1.15,2013-09-18 15:41:00,
2013-09-18 11:42:00,70.8,63.6,30.12,WSW,241,5.0,6.0,78,0.00,,,0.00,Wunderground v.1.15,2013-09-18 15:42:00,
2013-09-18 11:49:00,71.3,63.7,30.12,SSW,209,4.0,8.0,77,0.00,,,0.00,Wunderground v.1.15,2013-09-18 15:49:00,
2013-09-18 11:51:00,71.3,63.7,30.12,SW,220,4.0,6.0,77,0.00,,,0.00,Wunderground v.1.15,2013-09-18 15:51:00,
2013-09-18 11:57:00,71.4,63.8,30.12,SW,228,6.0,6.0,77,0.00,,,0.00,Wunderground v.1.15,2013-09-18 15:57:00,
2013-09-18 11:59:00,71.5,64.3,30.12,SW,234,6.0,6.0,78,0.00,,,0.00,Wunderground v.1.15,2013-09-18 15:59:00,
2013-09-18 12:03:00,71.7,64.1,30.12,West,260,4.0,5.0,77,0.00,,,0.00,Wunderground v.1.15,2013-09-18 16:03:00,
2013-09-18 12:04:00,71.7,64.1,30.12,West,274,4.0,5.0,77,0.00,,,0.00,Wunderground v.1.15,2013-09-18 16:04:00,
2013-09-18 12:09:00,71.5,63.5,30.12,SW,225,4.0,6.0,76,0.00,,,0.00,Wunderground v.1.15,2013-09-18 16:09:00,
2013-09-18 12:11:00,71.3,63.7,30.12,SSW,204,5.0,5.0,77,0.00,,,0.00,Wunderground v.1.15,2013-09-18 16:11:00,
2013-09-18 12:14:00,71.1,63.1,30.12,South,177,6.0,7.0,76,0.00,,,0.00,Wunderground v.1.15,2013-09-18 16:14:00,
2013-09-18 12:16:00,70.9,63.3,30.12,SSW,195,7.0,7.0,77,0.00,,,0.00,Wunderground v.1.15,2013-09-18 16:16:00,
2013-09-18 12:19:00,70.8,63.6,30.12,SSW,206,6.0,7.0,78,0.00,,,0.00,Wunderground v.1.15,2013-09-18 16:19:00,
2013-09-18 12:24:00,70.8,63.6,30.12,SSW,208,5.0,7.0,78,0.00,,,0.00,Wunderground v.1.15,2013-09-18 16:24:00,
2013-09-18 12:29:00,70.8,63.6,30.12,SW,231,5.0,7.0,78,0.00,,,0.00,Wunderground v.1.15,2013-09-18 16:29:00,
2013-09-18 12:31:00,70.6,63.4,30.12,SSW,197,5.0,5.0,78,0.00,,,0.00,Wunderground v.1.15,2013-09-18 16:31:00,
2013-09-18 12:37:00,70.4,63.6,30.11,WSW,256,7.0,7.0,79,0.00,,,0.00,Wunderground v.1.15,2013-09-18 16:37:00,
2013-09-18 12:39:00,70.3,63.5,30.11,SW,224,7.0,7.0,79,0.00,,,0.00,Wunderground v.1.15,2013-09-18 16:39:00,
2013-09-18 12:42:00,70.1,63.3,30.11,WSW,241,6.0,7.0,79,0.00,,,0.00,Wunderground v.1.15,2013-09-18 16:42:00,
2013-09-18 12:45:00,70.1,63.3,30.11,SW,218,6.0,7.0,79,0.00,,,0.00,Wunderground v.1.15,2013-09-18 16:45:00,
2013-09-18 12:48:00,70.2,64.1,30.11,SSW,205,5.0,7.0,81,0.00,,,0.00,Wunderground v.1.15,2013-09-18 16:48:00,
2013-09-18 12:54:00,70.4,64.3,30.11,South,188,4.0,5.0,81,0.00,,,0.00,Wunderground v.1.15,2013-09-18 16:54:00,
2013-09-18 12:56:00,70.4,63.6,30.11,SSW,205,4.0,8.0,79,0.00,,,0.00,Wunderground v.1.15,2013-09-18 16:56:00,
2013-09-18 13:01:00,70.1,63.6,30.11,SSW,210,5.0,6.0,80,0.00,,,0.00,Wunderground v.1.15,2013-09-18 17:01:00,
2013-09-18 13:03:00,70.1,63.6,30.11,WSW,241,6.0,6.0,80,0.00,,,0.00,Wunderground v.1.15,2013-09-18 17:03:00,
2013-09-18 13:07:00,70.1,64.0,30.11,South,189,5.0,6.0,81,0.00,,,0.00,Wunderground v.1.15,2013-09-18 17:07:00,
2013-09-18 13:09:00,70.3,64.2,30.11,SW,216,5.0,8.0,81,0.00,,,0.00,Wunderground v.1.15,2013-09-18 17:09:00,
2013-09-18 13:15:00,70.2,64.1,30.10,SW,219,5.0,5.0,81,0.00,,,0.00,Wunderground v.1.15,2013-09-18 17:15:00,
2013-09-18 13:20:00,70.1,64.3,30.10,SW,233,6.0,6.0,82,0.00,,,0.00,Wunderground v.1.15,2013-09-18 17:20:00,
2013-09-18 13:23:00,70.2,64.4,30.10,SW,216,6.0,6.0,82,0.00,,,0.00,Wunderground v.1.15,2013-09-18 17:23:00,
2013-09-18 13:25:00,70.3,64.5,30.10,SW,228,6.0,6.0,82,0.00,,,0.00,Wunderground v.1.15,2013-09-18 17:25:00,
2013-09-18 13:31:00,70.7,64.9,30.10,West,268,4.0,4.0,82,0.00,,,0.00,Wunderground v.1.15,2013-09-18 17:31:00,
2013-09-18 13:37:00,71.1,65.0,30.10,SW,218,3.0,6.0,81,0.00,,,0.00,Wunderground v.1.15,2013-09-18 17:37:00,
2013-09-18 13:39:00,71.0,64.9,30.10,SSW,195,4.0,6.0,81,0.00,,,0.00,Wunderground v.1.15,2013-09-18 17:39:00,
2013-09-18 13:42:00,71.1,65.0,30.09,SW,224,4.0,4.0,81,0.00,,,0.00,Wunderground v.1.15,2013-09-18 17:42:00,
2013-09-18 13:47:00,71.4,65.3,30.09,WSW,254,2.0,4.0,81,0.00,,,0.00,Wunderground v.1.15,2013-09-18 17:47:00,
2013-09-18 13:50:00,71.6,65.1,30.09,WNW,289,2.0,3.0,80,0.00,,,0.00,Wunderground v.1.15,2013-09-18 17:50:00,
2013-09-18 13:55:00,71.9,65.0,30.09,SW,220,2.0,3.0,79,0.00,,,0.00,Wunderground v.1.15,2013-09-18 17:55:00,
2013-09-18 13:56:00,72.0,65.5,30.09,SW,219,2.0,3.0,80,0.00,,,0.00,Wunderground v.1.15,2013-09-18 17:56:00,
2013-09-18 14:00:00,72.6,65.7,30.09,SSW,210,1.0,1.0,79,0.00,,,0.00,Wunderground v.1.15,2013-09-18 18:00:00,
2013-09-18 14:05:00,73.7,66.8,30.09,SSE,152,1.0,1.0,79,0.00,,,0.00,Wunderground v.1.15,2013-09-18 18:05:00,
2013-09-18 14:12:00,75.2,66.3,30.08,SE,143,1.0,3.0,74,0.00,,,0.00,Wunderground v.1.15,2013-09-18 18:12:00,
2013-09-18 14:15:00,75.5,66.6,30.08,SE,143,1.0,3.0,74,0.00,,,0.00,Wunderground v.1.15,2013-09-18 18:15:00,
2013-09-18 14:18:00,76.1,66.8,30.08,SSW,202,1.0,4.0,73,0.00,,,0.00,Wunderground v.1.15,2013-09-18 18:18:00,
2013-09-18 14:23:00,75.7,66.8,30.08,West,264,1.0,2.0,74,0.00,,,0.00,Wunderground v.1.15,2013-09-18 18:23:00,
2013-09-18 14:26:00,75.1,66.2,30.08,NW,305,2.0,3.0,74,0.00,,,0.00,Wunderground v.1.15,2013-09-18 18:26:00,
2013-09-18 14:28:00,75.0,66.5,30.08,NNW,341,2.0,3.0,75,0.00,,,0.00,Wunderground v.1.15,2013-09-18 18:28:00,
2013-09-18 14:31:00,75.3,66.4,30.08,SSE,167,2.0,3.0,74,0.00,,,0.00,Wunderground v.1.15,2013-09-18 18:31:00,
2013-09-18 14:36:00,75.7,66.0,30.07,South,179,3.0,4.0,72,0.00,,,0.00,Wunderground v.1.15,2013-09-18 18:36:00,
2013-09-18 14:41:00,75.6,65.9,30.07,SSW,208,3.0,3.0,72,0.00,,,0.00,Wunderground v.1.15,2013-09-18 18:41:00,
2013-09-18 14:42:00,75.6,66.3,30.07,SSE,158,3.0,4.0,73,0.00,,,0.00,Wunderground v.1.15,2013-09-18 18:42:00,
2013-09-18 14:50:00,76.4,66.3,30.06,SSE,162,3.0,3.0,71,0.00,,,0.00,Wunderground v.1.15,2013-09-18 18:50:00,
2013-09-18 14:55:00,76.5,66.8,30.06,SSE,160,2.0,3.0,72,0.00,,,0.00,Wunderground v.1.15,2013-09-18 18:55:00,
2013-09-18 14:56:00,76.8,67.5,30.06,South,189,3.0,5.0,73,0.00,,,0.00,Wunderground v.1.15,2013-09-18 18:56:00,
2013-09-18 15:01:00,77.5,66.5,30.06,SSE,148,2.0,2.0,69,0.00,,,0.00,Wunderground v.1.15,2013-09-18 19:01:00,
2013-09-18 15:03:00,77.9,66.9,30.06,SSE,148,1.0,2.0,69,0.00,,,0.00,Wunderground v.1.15,2013-09-18 19:03:00,
2013-09-18 15:05:00,78.4,67.4,30.06,SSW,203,1.0,8.0,69,0.00,,,0.00,Wunderground v.1.15,2013-09-18 19:05:00,
2013-09-18 15:11:00,78.0,66.6,30.06,South,188,3.0,3.0,68,0.00,,,0.00,Wunderground v.1.15,2013-09-18 19:11:00,
2013-09-18 15:13:00,77.7,66.7,30.06,SW,220,4.0,4.0,69,0.00,,,0.00,Wunderground v.1.15,2013-09-18 19:13:00,
2013-09-18 15:14:00,77.7,67.1,30.06,SW,214,4.0,5.0,70,0.00,,,0.00,Wunderground v.1.15,2013-09-18 19:14:00,
2013-09-18 15:16:00,77.8,66.8,30.06,SW,235,4.0,5.0,69,0.00,,,0.00,Wunderground v.1.15,2013-09-18 19:16:00,
2013-09-18 15:21:00,78.0,67.0,30.06,SSE,162,3.0,5.0,69,0.00,,,0.00,Wunderground v.1.15,2013-09-18 19:21:00,
2013-09-18 15:23:00,77.8,66.8,30.06,WSW,240,3.0,5.0,69,0.00,,,0.00,Wunderground v.1.15,2013-09-18 19:23:00,
2013-09-18 15:26:00,77.5,66.5,30.05,SSW,212,3.0,5.0,69,0.00,,,0.00,Wunderground v.1.15,2013-09-18 19:26:00,
2013-09-18 15:29:00,77.6,66.6,30.05,South,188,4.0,5.0,69,0.00,,,0.00,Wunderground v.1.15,2013-09-18 19:29:00,
2013-09-18 15:35:00,77.4,66.8,30.05,SSE,155,3.0,10.0,70,0.00,,,0.00,Wunderground v.1.15,2013-09-18 19:35:00,
2013-09-18 15:41:00,76.8,66.7,30.05,South,179,5.0,5.0,71,0.00,,,0.00,Wunderground v.1.15,2013-09-18 19:41:00,
2013-09-18 15:43:00,76.8,66.7,30.05,South,180,4.0,5.0,71,0.00,,,0.00,Wunderground v.1.15,2013-09-18 19:43:00,
2013-09-18 15:44:00,77.0,67.7,30.05,South,179,3.0,5.0,73,0.00,,,0.00,Wunderground v.1.15,2013-09-18 19:44:00,
2013-09-18 15:47:00,77.9,67.7,30.05,SSE,156,1.0,5.0,71,0.00,,,0.00,Wunderground v.1.15,2013-09-18 19:47:00,
2013-09-18 15:51:00,78.5,67.9,30.04,SW,214,1.0,3.0,70,0.00,,,0.00,Wunderground v.1.15,2013-09-18 19:51:00,
2013-09-18 15:53:00,78.3,67.3,30.04,SW,223,2.0,5.0,69,0.00,,,0.00,Wunderground v.1.15,2013-09-18 19:53:00,
2013-09-18 15:56:00,77.5,66.9,30.04,SSW,204,4.0,5.0,70,0.00,,,0.00,Wunderground v.1.15,2013-09-18 19:56:00,
2013-09-18 15:59:00,77.3,67.2,30.04,South,172,3.0,5.0,71,0.00,,,0.00,Wunderground v.1.15,2013-09-18 19:59:00,
2013-09-18 16:05:00,77.3,67.6,30.04,WSW,237,3.0,6.0,72,0.00,,,0.00,Wunderground v.1.15,2013-09-18 20:05:00,
2013-09-18 16:10:00,77.9,67.3,30.04,SSW,202,5.0,7.0,70,0.00,,,0.00,Wunderground v.1.15,2013-09-18 20:10:00,
2013-09-18 16:15:00,77.6,67.4,30.03,SSW,204,5.0,7.0,71,0.00,,,0.00,Wunderground v.1.15,2013-09-18 20:15:00,
2013-09-18 16:18:00,77.3,67.6,30.03,SSE,156,5.0,7.0,72,0.00,,,0.00,Wunderground v.1.15,2013-09-18 20:18:00,
2013-09-18 16:20:00,77.2,67.5,30.03,SSE,160,4.0,4.0,72,0.00,,,0.00,Wunderground v.1.15,2013-09-18 20:20:00,
2013-09-18 16:27:00,76.9,67.6,30.03,SE,139,4.0,5.0,73,0.00,,,0.00,Wunderground v.1.15,2013-09-18 20:27:00,
2013-09-18 16:33:00,76.6,67.3,30.03,SE,142,4.0,5.0,73,0.00,,,0.00,Wunderground v.1.15,2013-09-18 20:33:00,
2013-09-18 16:35:00,76.5,67.2,30.03,South,181,4.0,5.0,73,0.00,,,0.00,Wunderground v.1.15,2013-09-18 20:35:00,
2013-09-18 16:38:00,76.6,67.7,30.03,SSE,149,4.0,5.0,74,0.00,,,0.00,Wunderground v.1.15,2013-09-18 20:38:00,
2013-09-18 16:41:00,76.6,67.7,30.03,SSE,151,4.0,4.0,74,0.00,,,0.00,Wunderground v.1.15,2013-09-18 20:41:00,
2013-09-18 16:44:00,76.6,67.7,30.03,SSE,149,3.0,4.0,74,0.00,,,0.00,Wunderground v.1.15,2013-09-18 20:44:00,
2013-09-18 16:46:00,76.7,67.8,30.03,SSE,151,3.0,4.0,74,0.00,,,0.00,Wunderground v.1.15,2013-09-18 20:46:00,
2013-09-18 16:49:00,76.9,68.0,30.03,SE,133,3.0,5.0,74,0.00,,,0.00,Wunderground v.1.15,2013-09-18 20:49:00,
2013-09-18 16:51:00,77.0,68.1,30.03,SSE,154,3.0,3.0,74,0.00,,,0.00,Wunderground v.1.15,2013-09-18 20:51:00,
2013-09-18 16:57:00,76.9,67.6,30.03,SE,145,4.0,7.0,73,0.00,,,0.00,Wunderground v.1.15,2013-09-18 20:57:00,
2013-09-18 16:59:00,76.7,67.8,30.03,SSE,160,5.0,7.0,74,0.00,,,0.00,Wunderground v.1.15,2013-09-18 20:59:00,
2013-09-18 17:03:00,76.5,68.0,30.03,SE,139,5.0,5.0,75,0.00,,,0.00,Wunderground v.1.15,2013-09-18 21:03:00,
2013-09-18 17:07:00,76.6,68.1,30.03,SSE,166,4.0,5.0,75,0.00,,,0.00,Wunderground v.1.15,2013-09-18 21:07:00,
2013-09-18 17:11:00,76.5,68.0,30.03,SSE,150,3.0,3.0,75,0.00,,,0.00,Wunderground v.1.15,2013-09-18 21:11:00,
2013-09-18 17:13:00,76.6,68.1,30.03,SE,143,3.0,3.0,75,0.00,,,0.00,Wunderground v.1.15,2013-09-18 21:13:00,
2013-09-18 17:17:00,76.7,68.2,30.03,SE,137,3.0,6.0,75,0.00,,,0.00,Wunderground v.1.15,2013-09-18 21:17:00,
2013-09-18 17:19:00,76.7,68.2,30.03,SE,144,3.0,6.0,75,0.00,,,0.00,Wunderground v.1.15,2013-09-18 21:19:00,
2013-09-18 17:23:00,76.7,68.2,30.03,SSE,154,2.0,3.0,75,0.00,,,0.00,Wunderground v.1.15,2013-09-18 21:23:00,
2013-09-18 17:27:00,76.7,68.2,30.03,SE,143,2.0,4.0,75,0.00,,,0.00,Wunderground v.1.15,2013-09-18 21:27:00,
2013-09-18 17:31:00,76.8,68.3,30.03,SW,221,3.0,7.0,75,0.00,,,0.00,Wunderground v.1.15,2013-09-18 21:31:00,
2013-09-18 17:32:00,76.9,67.6,30.03,SW,225,3.0,8.0,73,0.00,,,0.00,Wunderground v.1.15,2013-09-18 21:32:00,
2013-09-18 17:37:00,77.2,67.5,30.03,SW,218,5.0,10.0,72,0.00,,,0.00,Wunderground v.1.15,2013-09-18 21:37:00,
2013-09-18 17:38:00,77.2,67.9,30.03,SW,223,6.0,10.0,73,0.00,,,0.00,Wunderground v.1.15,2013-09-18 21:38:00,
2013-09-18 17:43:00,77.1,67.4,30.03,SSW,206,7.0,7.0,72,0.00,,,0.00,Wunderground v.1.15,2013-09-18 21:43:00,
2013-09-18 17:44:00,76.9,67.2,30.03,SSW,199,8.0,8.0,72,0.00,,,0.00,Wunderground v.1.15,2013-09-18 21:44:00,
2013-09-18 17:46:00,76.7,67.4,30.03,SSW,206,7.0,8.0,73,0.00,,,0.00,Wunderground v.1.15,2013-09-18 21:46:00,
2013-09-18 17:53:00,76.8,67.5,30.03,SSW,213,6.0,8.0,73,0.00,,,0.00,Wunderground v.1.15,2013-09-18 21:53:00,
2013-09-18 17:54:00,76.9,67.6,30.03,SSE,156,6.0,8.0,73,0.00,,,0.00,Wunderground v.1.15,2013-09-18 21:54:00,
2013-09-18 17:57:00,76.9,67.6,30.03,South,187,6.0,8.0,73,0.00,,,0.00,Wunderground v.1.15,2013-09-18 21:57:00,
2013-09-18 18:01:00,76.9,68.0,30.03,SSW,196,5.0,6.0,74,0.00,,,0.00,Wunderground v.1.15,2013-09-18 22:01:00,
2013-09-18 18:03:00,76.9,67.6,30.03,SSW,211,5.0,8.0,73,0.00,,,0.00,Wunderground v.1.15,2013-09-18 22:03:00,
2013-09-18 18:07:00,76.6,67.7,30.03,SW,230,6.0,8.0,74,0.00,,,0.00,Wunderground v.1.15,2013-09-18 22:07:00,
2013-09-18 18:09:00,76.5,67.6,30.03,SSW,204,6.0,8.0,74,0.00,,,0.00,Wunderground v.1.15,2013-09-18 22:09:00,
2013-09-18 18:15:00,76.2,67.3,30.03,SSW,195,7.0,10.0,74,0.00,,,0.00,Wunderground v.1.15,2013-09-18 22:15:00,
2013-09-18 18:19:00,76.3,67.4,30.03,WSW,241,8.0,10.0,74,0.00,,,0.00,Wunderground v.1.15,2013-09-18 22:19:00,
2013-09-18 18:25:00,76.4,67.9,30.03,SSW,206,6.0,8.0,75,0.00,,,0.00,Wunderground v.1.15,2013-09-18 22:25:00,
2013-09-18 18:29:00,76.3,67.4,30.03,SSW,195,6.0,8.0,74,0.00,,,0.00,Wunderground v.1.15,2013-09-18 22:29:00,
2013-09-18 18:32:00,76.1,67.6,30.03,SSW,211,6.0,7.0,75,0.00,,,0.00,Wunderground v.1.15,2013-09-18 22:32:00,
2013-09-18 18:38:00,76.0,67.9,30.03,South,183,5.0,7.0,76,0.00,,,0.00,Wunderground v.1.15,2013-09-18 22:38:00,
2013-09-18 18:43:00,75.9,67.4,30.03,South,173,4.0,5.0,75,0.00,,,0.00,Wunderground v.1.15,2013-09-18 22:43:00,
2013-09-18 18:46:00,75.7,67.6,30.03,SSE,161,3.0,5.0,76,0.00,,,0.00,Wunderground v.1.15,2013-09-18 22:46:00,
2013-09-18 18:53:00,75.4,67.3,30.03,South,172,4.0,4.0,76,0.00,,,0.00,Wunderground v.1.15,2013-09-18 22:53:00,
2013-09-18 18:55:00,75.3,67.2,30.03,South,188,4.0,4.0,76,0.00,,,0.00,Wunderground v.1.15,2013-09-18 22:55:00,
2013-09-18 18:56:00,75.2,67.1,30.03,South,170,4.0,4.0,76,0.00,,,0.00,Wunderground v.1.15,2013-09-18 22:56:00,
2013-09-18 19:03:00,75.0,67.3,30.03,SSE,164,3.0,3.0,77,0.00,,,0.00,Wunderground v.1.15,2013-09-18 23:03:00,
2013-09-18 19:07:00,74.8,67.1,30.03,SSE,166,3.0,5.0,77,0.00,,,0.00,Wunderground v.1.15,2013-09-18 23:07:00,
2013-09-18 19:08:00,74.7,67.4,30.03,SSE,160,3.0,5.0,78,0.00,,,0.00,Wunderground v.1.15,2013-09-18 23:08:00,
2013-09-18 19:13:00,74.4,67.1,30.03,SSE,157,3.0,3.0,78,0.00,,,0.00,Wunderground v.1.15,2013-09-18 23:13:00,
2013-09-18 19:15:00,74.3,67.0,30.03,SSE,157,2.0,3.0,78,0.00,,,0.00,Wunderground v.1.15,2013-09-18 23:15:00,
2013-09-18 19:19:00,74.0,67.1,30.03,South,174,2.0,3.0,79,0.00,,,0.00,Wunderground v.1.15,2013-09-18 23:19:00,
2013-09-18 19:22:00,73.8,66.9,30.03,SSE,162,2.0,2.0,79,0.00,,,0.00,Wunderground v.1.15,2013-09-18 23:22:00,
2013-09-18 19:29:00,73.4,66.9,30.03,SSE,147,2.0,4.0,80,0.00,,,0.00,Wunderground v.1.15,2013-09-18 23:29:00,
2013-09-18 19:34:00,73.1,66.6,30.03,SSE,166,2.0,4.0,80,0.00,,,0.00,Wunderground v.1.15,2013-09-18 23:34:00,
2013-09-18 19:39:00,72.9,66.7,30.03,SSE,161,3.0,4.0,81,0.00,,,0.00,Wunderground v.1.15,2013-09-18 23:39:00,
2013-09-18 19:40:00,72.8,66.6,30.02,SSE,158,3.0,3.0,81,0.00,,,0.00,Wunderground v.1.15,2013-09-18 23:40:00,
2013-09-18 19:47:00,72.5,66.3,30.02,SSE,156,3.0,3.0,81,0.00,,,0.00,Wunderground v.1.15,2013-09-18 23:47:00,
2013-09-18 19:49:00,72.4,66.2,30.02,SSE,162,3.0,3.0,81,0.00,,,0.00,Wunderground v.1.15,2013-09-18 23:49:00,
2013-09-18 19:55:00,72.1,66.3,30.02,SSE,156,3.0,5.0,82,0.00,,,0.00,Wunderground v.1.15,2013-09-18 23:55:00,
2013-09-18 20:01:00,71.8,66.0,30.03,SSE,156,2.0,2.0,82,0.00,,,0.00,Wunderground v.1.15,2013-09-19 00:01:00,
2013-09-18 20:05:00,71.7,66.3,30.02,SSE,156,1.0,2.0,83,0.00,,,0.00,Wunderground v.1.15,2013-09-19 00:05:00,
2013-09-18 20:07:00,71.6,66.2,30.02,SSE,156,2.0,2.0,83,0.00,,,0.00,Wunderground v.1.15,2013-09-19 00:07:00,
2013-09-18 20:11:00,71.4,66.0,30.02,SSE,156,2.0,2.0,83,0.00,,,0.00,Wunderground v.1.15,2013-09-19 00:11:00,
2013-09-18 20:16:00,71.1,66.0,30.03,SSE,156,2.0,2.0,84,0.00,,,0.00,Wunderground v.1.15,2013-09-19 00:16:00,
2013-09-18 20:19:00,71.1,66.0,30.03,SSE,156,2.0,2.0,84,0.00,,,0.00,Wunderground v.1.15,2013-09-19 00:19:00,
2013-09-18 20:23:00,71.0,66.3,30.03,SSE,156,2.0,2.0,85,0.00,,,0.00,Wunderground v.1.15,2013-09-19 00:23:00,
2013-09-18 20:24:00,70.9,66.2,30.03,SSE,156,2.0,2.0,85,0.00,,,0.00,Wunderground v.1.15,2013-09-19 00:24:00,
2013-09-18 20:29:00,70.7,66.0,30.03,SSE,156,2.0,2.0,85,0.00,,,0.00,Wunderground v.1.15,2013-09-19 00:29:00,
2013-09-18 20:31:00,70.6,65.9,30.03,SSE,156,2.0,2.0,85,0.00,,,0.00,Wunderground v.1.15,2013-09-19 00:31:00,
2013-09-18 20:32:00,70.5,65.8,30.03,SSE,156,1.0,2.0,85,0.00,,,0.00,Wunderground v.1.15,2013-09-19 00:32:00,
2013-09-18 20:37:00,70.3,65.9,30.04,SSE,156,1.0,2.0,86,0.00,,,0.00,Wunderground v.1.15,2013-09-19 00:37:00,
2013-09-18 20:42:00,70.2,65.8,30.04,SSE,156,0.0,1.0,86,0.00,,,0.00,Wunderground v.1.15,2013-09-19 00:42:00,
2013-09-18 20:45:00,70.1,65.7,30.04,SSE,156,0.0,1.0,86,0.00,,,0.00,Wunderground v.1.15,2013-09-19 00:45:00,
2013-09-18 20:47:00,69.9,65.5,30.04,SSE,156,1.0,1.0,86,0.00,,,0.00,Wunderground v.1.15,2013-09-19 00:47:00,
2013-09-18 20:51:00,69.5,65.5,30.04,SSE,156,1.0,1.0,87,0.00,,,0.00,Wunderground v.1.15,2013-09-19 00:51:00,
2013-09-18 20:53:00,69.4,65.4,30.04,SSE,156,0.0,1.0,87,0.00,,,0.00,Wunderground v.1.15,2013-09-19 00:53:00,
2013-09-18 20:54:00,69.2,65.2,30.04,SSE,156,0.0,1.0,87,0.00,,,0.00,Wunderground v.1.15,2013-09-19 00:54:00,
2013-09-18 21:01:00,68.8,65.1,30.04,SSE,156,1.0,1.0,88,0.00,,,0.00,Wunderground v.1.15,2013-09-19 01:01:00,
2013-09-18 21:02:00,68.6,64.9,30.04,SSE,156,1.0,1.0,88,0.00,,,0.00,Wunderground v.1.15,2013-09-19 01:02:00,
2013-09-18 21:07:00,68.3,64.9,30.04,SSE,156,1.0,2.0,89,0.00,,,0.00,Wunderground v.1.15,2013-09-19 01:07:00,
2013-09-18 21:08:00,68.2,64.8,30.04,SSE,156,1.0,2.0,89,0.00,,,0.00,Wunderground v.1.15,2013-09-19 01:08:00,
2013-09-18 21:10:00,68.2,65.2,30.04,SSE,156,1.0,1.0,90,0.00,,,0.00,Wunderground v.1.15,2013-09-19 01:10:00,
2013-09-18 21:13:00,68.2,65.2,30.04,SSE,156,1.0,1.0,90,0.00,,,0.00,Wunderground v.1.15,2013-09-19 01:13:00,
2013-09-18 21:15:00,68.3,65.3,30.04,SSE,156,1.0,1.0,90,0.00,,,0.00,Wunderground v.1.15,2013-09-19 01:15:00,
2013-09-18 21:16:00,68.4,65.4,30.04,SSE,156,1.0,1.0,90,0.00,,,0.00,Wunderground v.1.15,2013-09-19 01:16:00,
2013-09-18 21:23:00,68.7,65.6,30.04,SSE,156,1.0,2.0,90,0.00,,,0.00,Wunderground v.1.15,2013-09-19 01:23:00,
2013-09-18 21:25:00,68.8,65.7,30.04,SSE,156,2.0,2.0,90,0.00,,,0.00,Wunderground v.1.15,2013-09-19 01:25:00,
2013-09-18 21:29:00,68.8,65.4,30.04,SSE,156,3.0,3.0,89,0.00,,,0.00,Wunderground v.1.15,2013-09-19 01:29:00,
2013-09-18 21:31:00,68.8,65.4,30.04,SSE,156,3.0,3.0,89,0.00,,,0.00,Wunderground v.1.15,2013-09-19 01:31:00,
2013-09-18 21:37:00,68.6,65.2,30.04,SSE,156,2.0,3.0,89,0.00,,,0.00,Wunderground v.1.15,2013-09-19 01:37:00,
2013-09-18 21:40:00,68.6,65.5,30.04,SSE,156,2.0,4.0,90,0.00,,,0.00,Wunderground v.1.15,2013-09-19 01:40:00,
2013-09-18 21:45:00,68.5,65.4,30.04,SSE,156,3.0,4.0,90,0.00,,,0.00,Wunderground v.1.15,2013-09-19 01:45:00,
2013-09-18 21:47:00,68.5,65.4,30.04,SE,146,3.0,4.0,90,0.00,,,0.00,Wunderground v.1.15,2013-09-19 01:47:00,
2013-09-18 21:50:00,68.4,65.4,30.04,SSE,147,3.0,3.0,90,0.00,,,0.00,Wunderground v.1.15,2013-09-19 01:50:00,
2013-09-18 21:53:00,68.3,65.3,30.04,SSE,147,3.0,3.0,90,0.00,,,0.00,Wunderground v.1.15,2013-09-19 01:53:00,
2013-09-18 21:58:00,68.4,65.7,30.04,SSE,149,2.0,3.0,91,0.00,,,0.00,Wunderground v.1.15,2013-09-19 01:58:00,
2013-09-18 22:00:00,68.4,65.7,30.04,SSE,149,3.0,3.0,91,0.00,,,0.00,Wunderground v.1.15,2013-09-19 02:00:00,
2013-09-18 22:03:00,68.4,65.4,30.04,SSE,149,3.0,3.0,90,0.00,,,0.00,Wunderground v.1.15,2013-09-19 02:03:00,
2013-09-18 22:05:00,68.4,65.7,30.04,SSE,149,3.0,3.0,91,0.00,,,0.00,Wunderground v.1.15,2013-09-19 02:05:00,
2013-09-18 22:11:00,68.5,65.8,30.04,SSE,149,2.0,2.0,91,0.00,,,0.00,Wunderground v.1.15,2013-09-19 02:11:00,
2013-09-18 22:12:00,68.5,65.8,30.04,SSE,149,2.0,3.0,91,0.00,,,0.00,Wunderground v.1.15,2013-09-19 02:12:00,
2013-09-18 22:17:00,68.6,65.9,30.04,SE,145,2.0,4.0,91,0.00,,,0.00,Wunderground v.1.15,2013-09-19 02:17:00,
2013-09-18 22:19:00,68.6,65.9,30.04,SE,145,3.0,4.0,91,0.00,,,0.00,Wunderground v.1.15,2013-09-19 02:19:00,
2013-09-18 22:20:00,68.6,65.9,30.04,SE,145,2.0,2.0,91,0.00,,,0.00,Wunderground v.1.15,2013-09-19 02:20:00,
2013-09-18 22:22:00,68.6,65.9,30.04,SE,145,2.0,2.0,91,0.00,,,0.00,Wunderground v.1.15,2013-09-19 02:22:00,
2013-09-18 22:25:00,68.6,65.9,30.05,SE,145,2.0,3.0,91,0.00,,,0.00,Wunderground v.1.15,2013-09-19 02:25:00,
2013-09-18 22:28:00,68.6,65.9,30.05,SE,145,2.0,3.0,91,0.00,,,0.00,Wunderground v.1.15,2013-09-19 02:28:00,
2013-09-18 22:33:00,68.6,65.9,30.05,SSE,147,3.0,3.0,91,0.00,,,0.00,Wunderground v.1.15,2013-09-19 02:33:00,
2013-09-18 22:34:00,68.7,66.0,30.05,SSE,147,3.0,3.0,91,0.00,,,0.00,Wunderground v.1.15,2013-09-19 02:34:00,
2013-09-18 22:41:00,68.9,66.2,30.04,SSE,149,4.0,4.0,91,0.00,,,0.00,Wunderground v.1.15,2013-09-19 02:41:00,
2013-09-18 22:42:00,68.9,65.8,30.04,SSE,149,3.0,5.0,90,0.00,,,0.00,Wunderground v.1.15,2013-09-19 02:42:00,
2013-09-18 22:49:00,68.9,65.8,30.04,SSE,152,4.0,5.0,90,0.00,,,0.00,Wunderground v.1.15,2013-09-19 02:49:00,
2013-09-18 22:51:00,68.8,65.7,30.04,SSE,152,4.0,4.0,90,0.00,,,0.00,Wunderground v.1.15,2013-09-19 02:51:00,
2013-09-18 22:52:00,68.7,65.6,30.04,SE,140,4.0,6.0,90,0.00,,,0.00,Wunderground v.1.15,2013-09-19 02:52:00,
2013-09-18 22:57:00,68.6,65.9,30.04,SE,144,5.0,6.0,91,0.00,,,0.00,Wunderground v.1.15,2013-09-19 02:57:00,
2013-09-18 22:59:00,68.5,65.8,30.04,SE,144,5.0,6.0,91,0.00,,,0.00,Wunderground v.1.15,2013-09-19 02:59:00,
2013-09-18 23:03:00,68.5,65.8,30.04,SE,135,5.0,5.0,91,0.00,,,0.00,Wunderground v.1.15,2013-09-19 03:03:00,
2013-09-18 23:05:00,68.5,65.8,30.04,SSE,149,5.0,5.0,91,0.00,,,0.00,Wunderground v.1.15,2013-09-19 03:05:00,
2013-09-18 23:11:00,68.5,65.8,30.04,SSE,147,3.0,3.0,91,0.00,,,0.00,Wunderground v.1.15,2013-09-19 03:11:00,
2013-09-18 23:14:00,68.5,65.8,30.04,SSE,147,3.0,4.0,91,0.00,,,0.00,Wunderground v.1.15,2013-09-19 03:14:00,
2013-09-18 23:16:00,68.5,65.8,30.04,SE,144,3.0,4.0,91,0.00,,,0.00,Wunderground v.1.15,2013-09-19 03:16:00,
2013-09-18 23:21:00,68.6,65.9,30.04,SSE,152,3.0,3.0,91,0.00,,,0.00,Wunderground v.1.15,2013-09-19 03:21:00,
2013-09-18 23:22:00,68.6,65.9,30.04,SE,144,3.0,3.0,91,0.00,,,0.00,Wunderground v.1.15,2013-09-19 03:22:00,
2013-09-18 23:27:00,68.5,65.8,30.04,SSE,155,4.0,4.0,91,0.00,,,0.00,Wunderground v.1.15,2013-09-19 03:27:00,
2013-09-18 23:32:00,68.5,65.8,30.04,SSE,149,4.0,4.0,91,0.00,,,0.00,Wunderground v.1.15,2013-09-19 03:32:00,
2013-09-18 23:34:00,68.4,66.0,30.04,SSE,148,3.0,4.0,92,0.00,,,0.00,Wunderground v.1.15,2013-09-19 03:34:00,
2013-09-18 23:37:00,68.4,66.0,30.03,SSE,148,3.0,4.0,92,0.00,,,0.00,Wunderground v.1.15,2013-09-19 03:37:00,
2013-09-18 23:42:00,68.4,66.0,30.03,SE,145,3.0,4.0,92,0.00,,,0.00,Wunderground v.1.15,2013-09-19 03:42:00,
2013-09-18 23:44:00,68.4,66.0,30.03,SE,142,2.0,4.0,92,0.00,,,0.00,Wunderground v.1.15,2013-09-19 03:44:00,
2013-09-18 23:49:00,68.4,66.0,30.04,SE,141,2.0,4.0,92,0.00,,,0.00,Wunderground v.1.15,2013-09-19 03:49:00,
2013-09-18 23:50:00,68.4,66.0,30.03,SE,145,2.0,2.0,92,0.00,,,0.00,Wunderground v.1.15,2013-09-19 03:50:00,
2013-09-18 23:55:00,68.4,66.0,30.03,SE,144,2.0,2.0,92,0.00,,,0.00,Wunderground v.1.15,2013-09-19 03:55:00,
2013-09-18 23:57:00,68.4,66.0,30.03,SSE,149,2.0,4.0,92,0.00,,,0.00,Wunderground v.1.15,2013-09-19 03:57:00,